Terminal Aerodrome Forecast
Issued by NWS

Home | Current Version | Previous Version | Text Only | Print | Product List | Glossary Off
Versions: 1 2 3 4 5 6 7 8 9 10 11 12 13 14 15 16 17 18 19 20 21 22 23 24 25 26 27 28 29 30 31 32 33 34 35 36 37 38 39 40 41

094
FTUS43 KGRB 052339
TAFRHI
TAF
KRHI 052339Z 0600/0624 20005KT P6SM SCT020 OVC040
     FM060400 21005KT 4SM -SN SCT020 OVC030
     FM060800 24004KT P6SM BKN025
     FM061600 24008KT P6SM BKN020 BKN200=

USA.gov is the U.S. government's official web portal to all federal, state and local government web resources and services.